Time;durP1;ratioP1;P1;durP2;ratioP2;P2;SDS_P1;SDS_P2;PMS_P1;PMS_P2;Temp;Humidity;BMP_temperature;BMP_pressure;BME280_temperature;BME280_humidity;BME280_pressure;Samples;Min_cycle;Max_cycle;Signal;HPM_P1;HPM_P2
2022/03/04 00:02:00;;;;;;;;;60.50;45.25;;;;;10.13;68.52;101346.25;5076363;28;45731;-85
2022/03/04 00:04:26;;;;;;;;;59.25;48.75;;;;;9.81;69.40;101294.97;5074025;28;47239;-87
2022/03/04 00:06:53;;;;;;;;;58.50;49.00;;;;;9.91;68.93;101312.91;5077374;28;47476;-86
2022/03/04 00:09:20;;;;;;;;;61.75;49.00;;;;;10.02;68.70;101330.03;5074476;28;45998;-86
2022/03/04 00:11:45;;;;;;;;;55.50;46.25;;;;;10.19;68.74;101357.03;5082890;27;45330;-86
2022/03/04 00:14:11;;;;;;;;;61.50;47.25;;;;;10.23;68.94;101358.94;5078334;28;45984;-86
2022/03/04 00:16:36;;;;;;;;;58.25;46.50;;;;;10.24;68.80;101354.56;5079910;28;48105;-86
2022/03/04 00:19:12;;;;;;;;;61.00;47.00;;;;;10.18;68.71;101339.38;5078576;28;45402;-86
2022/03/04 00:21:44;;;;;;;;;51.75;43.50;;;;;10.06;68.31;101324.03;5083048;27;45314;-88
2022/03/04 00:24:11;;;;;;;;;55.50;46.25;;;;;10.26;68.40;101360.78;5079676;28;46332;-86
2022/03/04 00:26:37;;;;;;;;;58.00;45.50;;;;;10.24;68.94;101355.44;5081317;28;47339;-86
2022/03/04 00:29:05;;;;;;;;;59.50;47.25;;;;;10.19;68.60;101342.91;5078747;28;45379;-86
2022/03/04 00:31:30;;;;;;;;;58.75;46.50;;;;;10.24;69.48;101354.56;5081767;28;45278;-88
2022/03/04 00:33:56;;;;;;;;;62.75;48.75;;;;;10.06;68.54;101329.31;5072612;28;45840;-89
2022/03/04 00:36:22;;;;;;;;;59.25;47.25;;;;;10.25;68.86;101357.25;5081994;28;46940;-87
2022/03/04 00:38:52;;;;;;;;;61.50;47.25;;;;;10.27;68.95;101352.94;5080845;28;45505;-88
2022/03/04 00:41:19;;;;;;;;;63.25;49.00;;;;;10.29;68.79;101348.63;5085879;27;45233;-90
2022/03/04 00:43:46;;;;;;;;;55.25;46.00;;;;;10.17;66.86;101329.69;5081941;28;45469;-90
2022/03/04 00:46:11;;;;;;;;;58.75;45.75;;;;;10.10;68.80;101306.53;5086664;28;46339;-89
2022/03/04 00:48:38;;;;;;;;;59.00;49.25;;;;;9.99;68.92;101284.13;5083806;28;45307;-88
2022/03/04 00:51:04;;;;;;;;;55.25;44.75;;;;;10.25;67.91;101329.91;5075460;27;45256;-90
2022/03/04 00:53:30;;;;;;;;;63.25;48.00;;;;;10.27;68.03;101337.09;5074595;28;45169;-90
2022/03/04 00:55:56;;;;;;;;;61.00;47.75;;;;;10.03;68.56;101297.50;5077264;28;47090;-87
2022/03/04 00:58:21;;;;;;;;;64.25;50.00;;;;;10.21;68.62;101331.56;5086850;27;45653;-87
2022/03/04 01:00:46;;;;;;;;;62.00;49.00;;;;;10.06;69.21;101316.09;5082207;27;45491;-87
2022/03/04 01:03:12;;;;;;;;;58.00;45.25;;;;;10.19;68.98;101338.53;5079970;28;46534;-86
2022/03/04 01:05:38;;;;;;;;;57.50;44.25;;;;;10.19;68.82;101338.53;5080773;28;47249;-86
2022/03/04 01:08:03;;;;;;;;;59.75;48.00;;;;;10.28;68.34;101356.50;5076167;27;45507;-86
2022/03/04 01:10:29;;;;;;;;;55.00;43.50;;;;;10.21;68.76;101352.69;5088295;27;45320;-87
2022/03/04 01:12:54;;;;;;;;;61.75;48.25;;;;;9.67;69.14;101254.88;5079356;27;45358;-86
2022/03/04 01:15:20;;;;;;;;;54.75;43.25;;;;;10.29;68.60;101360.94;5080595;28;47053;-86
2022/03/04 01:17:45;;;;;;;;;52.00;42.75;;;;;10.28;68.11;101360.03;5078167;28;45367;-86
2022/03/04 01:20:11;;;;;;;;;52.00;39.50;;;;;9.96;69.24;101305.16;5079583;27;45489;-85
2022/03/04 01:22:36;;;;;;;;;56.75;44.75;;;;;10.17;68.92;101356.09;5079219;27;45172;-85
2022/03/04 01:25:02;;;;;;;;;54.50;43.25;;;;;10.17;69.07;101358.75;5080712;27;45385;-84
2022/03/04 01:27:28;;;;;;;;;51.75;43.75;;;;;10.19;68.25;101364.06;5079842;27;45853;-84
2022/03/04 01:29:54;;;;;;;;;53.25;41.00;;;;;9.85;68.55;101296.84;5073104;27;45299;-85
2022/03/04 01:32:19;;;;;;;;;54.50;41.00;;;;;10.00;68.51;101325.56;5079811;27;45306;-86
2022/03/04 01:34:44;;;;;;;;;53.25;41.25;;;;;9.83;68.37;101287.97;5074618;28;46553;-86
2022/03/04 01:37:10;;;;;;;;;57.50;45.50;;;;;10.18;68.76;101357.00;5080796;27;45291;-88
2022/03/04 01:39:36;;;;;;;;;56.00;44.25;;;;;10.16;68.12;101356.91;5077306;28;45350;-87
2022/03/04 01:42:03;;;;;;;;;51.25;37.25;;;;;10.07;68.36;101346.94;5079941;28;45939;-87
2022/03/04 01:44:29;;;;;;;;;55.00;43.75;;;;;10.16;68.29;101356.03;5079140;28;47528;-87
2022/03/04 01:46:54;;;;;;;;;51.50;43.25;;;;;10.15;68.10;101356.88;5080679;27;45291;-87
2022/03/04 01:49:20;;;;;;;;;55.00;44.50;;;;;10.14;68.59;101355.06;5072445;28;44895;-86
2022/03/04 01:51:45;;;;;;;;;52.75;43.00;;;;;9.62;68.60;101265.25;5075520;28;45876;-87
2022/03/04 01:54:10;;;;;;;;;59.75;46.00;;;;;9.76;69.52;101283.34;5077100;28;45281;-88
2022/03/04 01:56:36;;;;;;;;;53.75;43.00;;;;;10.06;68.75;101325.78;5081511;27;45363;-88
2022/03/04 01:59:02;;;;;;;;;54.75;44.00;;;;;10.06;68.74;101331.06;5079563;28;45280;-88
2022/03/04 02:01:27;;;;;;;;;51.75;41.00;;;;;9.97;68.70;101299.00;5080286;28;44781;-88
2022/03/04 02:03:53;;;;;;;;;52.25;43.00;;;;;9.87;68.06;101284.59;5076738;27;45315;-88
2022/03/04 02:06:18;;;;;;;;;54.25;42.50;;;;;9.70;67.56;101265.53;5082262;28;45240;-89
2022/03/04 02:08:44;;;;;;;;;54.00;42.75;;;;;10.03;67.66;101338.88;5076785;27;45212;-87
2022/03/04 02:11:09;;;;;;;;;57.75;45.25;;;;;9.63;68.91;101277.63;5076100;28;44890;-87
2022/03/04 02:13:37;;;;;;;;;55.50;43.50;;;;;9.93;69.27;101339.38;5077222;28;47159;-86
2022/03/04 02:16:08;;;;;;;;;54.50;43.75;;;;;9.43;68.45;101260.16;5080705;28;45388;-88
2022/03/04 02:18:33;;;;;;;;;47.50;37.25;;;;;9.78;66.95;101326.53;5078863;27;45442;-89
2022/03/04 02:21:02;;;;;;;;;55.00;44.00;;;;;9.82;68.65;101339.88;5086632;27;46194;-88
2022/03/04 02:23:27;;;;;;;;;54.50;44.00;;;;;9.71;69.02;101319.22;5079994;28;45115;-89
2022/03/04 02:25:53;;;;;;;;;52.00;41.00;;;;;9.70;68.42;101323.63;5080070;28;45354;-87
2022/03/04 02:28:20;;;;;;;;;55.25;41.75;;;;;9.64;68.73;101332.22;5075504;28;45320;-86
2022/03/04 02:30:45;;;;;;;;;43.75;36.25;;;;;9.37;68.71;101283.69;5075610;28;45323;-85
2022/03/04 02:33:11;;;;;;;;;52.50;41.00;;;;;9.32;68.25;101270.31;5077974;28;48000;-88
2022/03/04 02:35:38;;;;;;;;;45.00;39.75;;;;;9.54;68.90;101318.63;5080866;27;45227;-85
2022/03/04 02:38:04;;;;;;;;;50.75;42.25;;;;;9.50;69.69;101324.63;5079006;27;45427;-86
2022/03/04 02:40:30;;;;;;;;;53.25;40.00;;;;;9.36;69.41;101314.47;5080742;28;45227;-87
2022/03/04 02:42:56;;;;;;;;;55.75;42.50;;;;;9.34;68.92;101304.69;5075524;28;46487;-87
2022/03/04 02:45:22;;;;;;;;;53.50;43.00;;;;;9.30;68.96;101314.22;5079371;27;45356;-87
2022/03/04 02:47:47;;;;;;;;;50.75;41.25;;;;;9.39;69.54;101335.69;5074899;27;45452;-86
2022/03/04 02:50:13;;;;;;;;;52.25;43.00;;;;;9.31;69.30;101334.47;5071004;28;44752;-86
2022/03/04 02:52:38;;;;;;;;;54.50;43.25;;;;;8.96;69.72;101291.84;5094781;27;47645;-85
2022/03/04 02:55:09;;;;;;;;;48.50;41.75;;;;;9.22;70.47;101335.88;5077137;28;45278;-85
2022/03/04 02:57:35;;;;;;;;;54.00;41.75;;;;;9.17;69.92;101343.63;5076396;27;45234;-86
2022/03/04 03:00:01;;;;;;;;;55.50;44.00;;;;;9.14;70.18;101346.13;5077905;28;45437;-85
2022/03/04 03:02:26;;;;;;;;;55.75;44.50;;;;;9.13;70.51;101345.25;5077211;28;48230;-86
2022/03/04 03:04:51;;;;;;;;;45.50;40.75;;;;;8.87;70.12;101299.38;5076674;28;45375;-84
2022/03/04 03:07:16;;;;;;;;;55.75;45.50;;;;;8.94;69.67;101314.59;5078929;27;44846;-85
2022/03/04 03:09:42;;;;;;;;;51.25;44.00;;;;;8.92;69.63;101307.47;5071531;28;45612;-85
2022/03/04 03:12:08;;;;;;;;;53.75;44.25;;;;;8.89;70.29;101304.72;5078680;27;46192;-85
2022/03/04 03:14:34;;;;;;;;;58.00;45.75;;;;;9.08;70.72;101344.16;5073962;27;45251;-85
2022/03/04 03:16:59;;;;;;;;;61.75;46.75;;;;;8.81;70.48;101301.78;5078344;28;45343;-85
2022/03/04 03:19:24;;;;;;;;;55.50;43.50;;;;;9.03;70.67;101336.91;5075526;28;45325;-85
2022/03/04 03:21:50;;;;;;;;;51.75;43.50;;;;;8.89;71.01;101310.00;5078934;28;48163;-85
2022/03/04 03:24:15;;;;;;;;;61.25;45.75;;;;;8.95;70.24;101319.03;5078441;28;45353;-85
2022/03/04 03:26:40;;;;;;;;;58.00;45.50;;;;;9.10;70.15;101344.19;5081764;28;45252;-87
2022/03/04 03:29:06;;;;;;;;;57.75;45.75;;;;;8.87;70.45;101307.28;5069849;28;45546;-86
2022/03/04 03:31:31;;;;;;;;;59.25;45.25;;;;;8.80;70.38;101293.81;5082069;28;45207;-86
2022/03/04 03:33:56;;;;;;;;;59.75;45.25;;;;;8.80;70.53;101294.72;5068828;28;45213;-85
2022/03/04 03:36:22;;;;;;;;;54.50;44.75;;;;;8.88;70.57;101305.56;5080229;27;45128;-86
2022/03/04 03:38:48;;;;;;;;;58.75;46.25;;;;;9.09;71.16;101347.69;5071261;28;45339;-86
2022/03/04 03:41:13;;;;;;;;;54.00;42.50;;;;;9.08;70.91;101352.06;5080405;27;45194;-86
2022/03/04 03:43:39;;;;;;;;;60.75;46.75;;;;;8.87;71.15;101306.41;5086202;27;45860;-86
2022/03/04 03:46:05;;;;;;;;;54.00;44.25;;;;;8.95;69.59;101323.41;5081303;28;45215;-88
2022/03/04 03:48:30;;;;;;;;;53.25;44.50;;;;;8.83;70.17;101304.50;5076676;28;45980;-87
2022/03/04 03:50:56;;;;;;;;;58.75;44.75;;;;;9.05;70.79;101335.25;5072276;27;46107;-87
2022/03/04 03:53:21;;;;;;;;;61.00;46.50;;;;;8.70;71.17;101272.34;5076805;27;45351;-88
2022/03/04 03:55:46;;;;;;;;;59.00;47.50;;;;;8.81;71.44;101282.44;5080386;28;45586;-88
2022/03/04 03:58:12;;;;;;;;;57.75;46.50;;;;;9.20;70.93;101354.28;5072996;28;45429;-87
2022/03/04 04:00:38;;;;;;;;;57.75;47.50;;;;;8.97;70.16;101313.84;5079672;27;46804;-86
2022/03/04 04:03:03;;;;;;;;;51.50;41.00;;;;;9.00;70.08;101320.97;5071696;28;45383;-87
2022/03/04 04:05:28;;;;;;;;;57.50;46.50;;;;;9.23;70.67;101358.78;5080182;28;45275;-87
2022/03/04 04:07:54;;;;;;;;;55.75;45.00;;;;;8.85;70.63;101289.59;5074069;28;45252;-85
2022/03/04 04:10:20;;;;;;;;;58.00;47.75;;;;;9.18;70.43;101340.13;5075759;28;45260;-87
2022/03/04 04:12:46;;;;;;;;;61.00;48.25;;;;;9.02;70.28;101317.56;5075850;27;45254;-87
2022/03/04 04:15:11;;;;;;;;;61.75;47.00;;;;;9.06;70.66;101313.28;5078265;28;45410;-88
2022/03/04 04:17:37;;;;;;;;;66.25;49.25;;;;;9.26;70.05;101349.22;5076756;28;45422;-87
2022/03/04 04:20:02;;;;;;;;;60.00;47.25;;;;;9.12;70.54;101329.34;5070776;28;45389;-88
2022/03/04 04:22:28;;;;;;;;;59.25;47.75;;;;;8.93;70.42;101291.72;5072833;28;45244;-87
2022/03/04 04:24:53;;;;;;;;;59.25;47.25;;;;;9.07;70.68;101310.69;5074411;27;45199;-87
2022/03/04 04:27:18;;;;;;;;;59.25;45.00;;;;;9.30;70.26;101353.81;5078729;27;45220;-83
2022/03/04 04:29:44;;;;;;;;;62.75;47.00;;;;;9.31;70.62;101349.41;5071415;27;45266;-87
2022/03/04 04:32:09;;;;;;;;;61.25;49.25;;;;;8.91;70.83;101287.25;5077578;28;45243;-80
2022/03/04 04:34:35;;;;;;;;;58.00;47.50;;;;;9.33;70.69;101353.91;5072462;27;45366;-82
2022/03/04 04:37:01;;;;;;;;;62.25;48.75;;;;;9.35;70.43;101353.97;5085093;28;45376;-81
2022/03/04 04:39:26;;;;;;;;;64.00;51.00;;;;;9.26;70.65;101354.50;5074589;27;45596;-82
2022/03/04 04:41:52;;;;;;;;;56.00;46.25;;;;;9.30;70.37;101367.00;5080038;27;45256;-80
2022/03/04 04:44:17;;;;;;;;;38.00;33.75;;;;;9.26;70.53;101358.88;5079817;28;45343;-85
2022/03/04 04:46:42;;;;;;;;;62.50;48.50;;;;;9.31;70.86;101362.59;5087164;28;45908;-83
2022/03/04 04:49:09;;;;;;;;;59.75;47.75;;;;;9.11;71.19;101332.84;5074045;27;45271;-89
2022/03/04 04:51:34;;;;;;;;;54.25;43.25;;;;;9.17;70.71;101339.22;5106925;27;45310;-83
2022/03/04 04:53:59;;;;;;;;;60.50;42.75;;;;;9.10;70.80;101321.38;5081843;27;45241;-86
2022/03/04 04:56:25;;;;;;;;;65.25;50.00;;;;;9.32;70.86;101362.66;5086175;28;47066;-83
2022/03/04 04:58:50;;;;;;;;;59.00;45.75;;;;;9.41;69.17;101377.97;5077691;27;45374;-83
2022/03/04 05:01:15;;;;;;;;;60.50;48.75;;;;;9.08;70.69;101317.78;5082308;27;45476;-86
2022/03/04 05:03:43;;;;;;;;;64.75;49.00;;;;;9.01;70.30;101301.66;5094359;27;45444;-85
2022/03/04 05:06:08;;;;;;;;;58.75;48.00;;;;;9.31;70.79;101357.34;5081988;28;46119;-89
2022/03/04 05:08:34;;;;;;;;;65.75;51.50;;;;;9.37;69.63;101374.28;5075961;28;45322;-85
2022/03/04 05:11:00;;;;;;;;;65.25;52.25;;;;;8.84;71.67;101288.72;5077450;27;45457;-85
2022/03/04 05:13:25;;;;;;;;;62.50;51.50;;;;;9.27;70.50;101364.25;5077083;27;45928;-85
2022/03/04 05:15:50;;;;;;;;;67.75;51.00;;;;;9.28;70.53;101366.03;5078418;28;45307;-85
2022/03/04 05:18:16;;;;;;;;;65.75;51.00;;;;;9.01;71.15;101323.66;5093109;27;47018;-85
2022/03/04 05:20:41;;;;;;;;;58.50;48.00;;;;;9.22;71.32;101349.06;5080934;28;45534;-86
2022/03/04 05:23:07;;;;;;;;;62.75;48.50;;;;;9.45;70.27;101382.50;5079524;27;45392;-83
2022/03/04 05:25:32;;;;;;;;;65.50;51.00;;;;;9.40;70.47;101376.16;5084432;28;46462;-84
2022/03/04 05:27:57;;;;;;;;;59.25;48.50;;;;;9.23;71.17;101343.84;5078879;28;47110;-83
2022/03/04 05:30:23;;;;;;;;;69.75;53.00;;;;;9.48;71.14;101393.16;5082488;28;45264;-84
2022/03/04 05:32:48;;;;;;;;;63.00;50.25;;;;;9.36;71.34;101364.59;5078061;28;45443;-84
2022/03/04 05:35:14;;;;;;;;;60.00;46.00;;;;;9.43;70.54;101383.28;5081716;27;45307;-84
2022/03/04 05:37:40;;;;;;;;;60.75;49.00;;;;;9.50;71.64;101386.22;5077224;28;45845;-85
2022/03/04 05:40:05;;;;;;;;;62.50;50.75;;;;;9.51;70.78;101385.38;5070080;28;45287;-86
2022/03/04 05:42:31;;;;;;;;;61.25;48.25;;;;;9.40;70.62;101368.22;5078271;28;45280;-86
2022/03/04 05:44:56;;;;;;;;;64.00;50.25;;;;;9.55;70.92;101399.56;5078252;28;45430;-86
2022/03/04 05:47:22;;;;;;;;;65.00;50.50;;;;;9.25;70.62;101336.91;5078974;28;46127;-86
2022/03/04 05:49:47;;;;;;;;;63.50;49.25;;;;;9.46;71.08;101370.19;5069817;28;45350;-86
2022/03/04 05:52:13;;;;;;;;;63.75;50.00;;;;;9.41;71.39;101360.38;5077895;28;45329;-86
2022/03/04 05:54:38;;;;;;;;;65.75;51.75;;;;;9.56;70.76;101382.91;5076786;28;46196;-87
2022/03/04 05:57:04;;;;;;;;;58.00;47.50;;;;;9.64;71.03;101390.28;5079523;28;46522;-86
2022/03/04 05:59:29;;;;;;;;;63.00;50.75;;;;;9.67;71.02;101384.22;5075265;28;45200;-89
2022/03/04 06:01:55;;;;;;;;;60.75;48.25;;;;;9.47;70.64;101343.88;5082362;27;45418;-92
2022/03/04 06:04:20;;;;;;;;;60.25;47.50;;;;;9.69;70.62;101390.47;5081060;28;46001;-89
2022/03/04 06:06:46;;;;;;;;;66.50;50.00;;;;;9.71;70.53;101386.13;5081172;27;45323;-90
2022/03/04 06:09:11;;;;;;;;;62.75;50.00;;;;;9.52;70.78;101357.22;5077591;27;45371;-90
2022/03/04 06:11:36;;;;;;;;;63.00;49.75;;;;;9.60;70.86;101390.97;5081404;28;45379;-90
2022/03/04 06:14:03;;;;;;;;;65.25;50.00;;;;;9.66;71.05;101387.69;5075753;27;45285;-88
2022/03/04 06:16:28;;;;;;;;;63.25;48.50;;;;;9.46;70.50;101354.38;5078626;28;45313;-86
2022/03/04 06:18:54;;;;;;;;;59.75;47.50;;;;;9.72;70.02;101397.56;5078212;27;45395;-87
2022/03/04 06:21:19;;;;;;;;;66.75;48.25;;;;;9.71;70.89;101395.78;5079331;28;45257;-91
2022/03/04 06:23:45;;;;;;;;;62.75;50.25;;;;;9.79;70.84;101416.34;5080845;27;45334;-89
2022/03/04 06:26:10;;;;;;;;;71.00;53.50;;;;;9.77;70.91;101420.66;5080612;28;45429;-92
2022/03/04 06:28:36;;;;;;;;;69.75;52.25;;;;;9.68;70.48;101409.75;5079811;27;45407;-88
2022/03/04 06:31:01;;;;;;;;;64.00;50.50;;;;;9.64;70.13;101397.31;5081654;28;45325;-86
2022/03/04 06:33:32;;;;;;;;;56.75;46.25;;;;;9.51;69.97;101376.56;5074445;27;45236;-87
2022/03/04 06:36:18;;;;;;;;;65.25;50.75;;;;;9.75;70.24;101430.28;5080580;28;47050;-85
2022/03/04 06:38:45;;;;;;;;;65.25;50.50;;;;;9.74;69.82;101428.47;5075336;27;45434;-86
2022/03/04 06:41:12;;;;;;;;;65.75;52.00;;;;;9.74;70.80;101432.84;5094278;27;45398;-86
2022/03/04 06:43:39;;;;;;;;;58.00;48.25;;;;;9.68;70.56;101433.50;5078420;28;47556;-85
2022/03/04 06:46:06;;;;;;;;;56.00;44.75;;;;;9.63;69.98;101417.53;5078789;27;45250;-82
2022/03/04 06:48:33;;;;;;;;;69.00;51.00;;;;;9.60;70.26;101416.47;5088591;27;45363;-83
2022/03/04 06:50:58;;;;;;;;;63.00;49.75;;;;;9.64;70.70;101435.16;5074897;27;45256;-80
2022/03/04 06:53:24;;;;;;;;;59.75;48.50;;;;;9.61;70.50;101428.88;5074652;28;44761;-78
2022/03/04 06:55:50;;;;;;;;;61.50;48.00;;;;;9.52;71.40;101410.94;5071936;28;48210;-84
2022/03/04 06:58:16;;;;;;;;;61.25;50.25;;;;;9.43;70.58;101400.00;5074611;27;45466;-85
2022/03/04 07:00:41;;;;;;;;;62.25;49.00;;;;;9.74;69.99;101457.50;5078108;28;45484;-87
2022/03/04 07:03:08;;;;;;;;;64.50;49.00;;;;;9.80;70.00;101470.97;5083293;27;44773;-86
2022/03/04 07:05:33;;;;;;;;;63.25;51.25;;;;;9.41;70.32;101399.97;5080299;28;47328;-88
2022/03/04 07:07:59;;;;;;;;;65.25;49.50;;;;;9.76;70.24;101454.94;5078192;28;45860;-88
2022/03/04 07:10:24;;;;;;;;;64.25;49.25;;;;;9.80;70.46;101470.03;5073362;28;45263;-91
2022/03/04 07:12:50;;;;;;;;;64.75;50.50;;;;;9.88;70.32;101475.63;5079301;27;45324;-88
2022/03/04 07:15:16;;;;;;;;;59.00;47.00;;;;;9.74;69.55;101454.88;5079820;27;45139;-89
2022/03/04 07:17:41;;;;;;;;;58.25;46.00;;;;;9.52;69.28;101424.13;5081014;28;45234;-90
2022/03/04 07:20:08;;;;;;;;;58.00;48.00;;;;;9.79;69.09;101469.16;5082295;27;45336;-91
2022/03/04 07:22:37;;;;;;;;;61.75;48.25;;;;;9.86;68.89;101486.13;5079367;28;47840;-90
2022/03/04 07:25:12;;;;;;;;;58.00;48.25;;;;;9.83;70.24;101486.91;5081065;27;45315;-88
2022/03/04 07:27:39;;;;;;;;;59.75;46.00;;;;;9.73;69.71;101473.31;5078588;27;45157;-83
2022/03/04 07:30:13;;;;;;;;;62.75;49.00;;;;;9.63;69.35;101449.19;5070240;28;45213;-89
2022/03/04 07:32:40;;;;;;;;;65.75;50.00;;;;;9.60;70.03;101450.78;5077778;27;45386;-85
2022/03/04 07:35:07;;;;;;;;;63.50;50.00;;;;;9.52;69.94;101441.69;5072213;27;45406;-87
2022/03/04 07:37:34;;;;;;;;;67.25;51.25;;;;;9.85;69.56;101492.25;5077168;27;45353;-87
2022/03/04 07:40:00;;;;;;;;;64.25;51.75;;;;;9.90;69.95;101498.59;5077782;28;45412;-85
2022/03/04 07:42:25;;;;;;;;;62.00;50.00;;;;;9.72;69.82;101469.78;5076910;28;45322;-88
2022/03/04 07:44:50;;;;;;;;;63.25;51.50;;;;;9.78;70.18;101483.19;5074326;27;45305;-88
2022/03/04 07:47:16;;;;;;;;;68.50;50.00;;;;;9.83;69.72;101488.63;5077046;28;45295;-81
2022/03/04 07:49:44;;;;;;;;;68.00;52.25;;;;;9.90;70.04;101498.59;5068532;27;45346;-81
2022/03/04 07:52:11;;;;;;;;;70.00;51.00;;;;;9.84;70.01;101488.72;5075173;28;45508;-84
2022/03/04 07:54:36;;;;;;;;;66.75;52.25;;;;;9.95;69.73;101504.97;5074812;28;45185;-85
2022/03/04 07:57:02;;;;;;;;;65.00;51.00;;;;;9.99;70.31;101512.16;5077442;28;45354;-85
2022/03/04 07:59:28;;;;;;;;;62.00;49.50;;;;;9.67;70.38;101436.13;5074672;28;45236;-88
2022/03/04 08:01:53;;;;;;;;;68.50;54.00;;;;;9.77;69.17;101447.06;5079425;27;45267;-88
2022/03/04 08:04:18;;;;;;;;;66.25;53.25;;;;;10.13;69.78;101504.75;5075754;28;46378;-87
2022/03/04 08:06:44;;;;;;;;;70.50;54.25;;;;;10.16;69.32;101509.25;5079329;28;45353;-85
2022/03/04 08:09:09;;;;;;;;;68.75;54.25;;;;;9.98;69.94;101475.13;5075151;28;45448;-86
2022/03/04 08:11:34;;;;;;;;;67.00;53.00;;;;;9.98;70.02;101467.22;5079364;27;44622;-85
2022/03/04 08:14:00;;;;;;;;;70.00;54.00;;;;;10.02;69.34;101458.53;5074768;28;45429;-86
2022/03/04 08:16:26;;;;;;;;;70.00;54.00;;;;;10.30;68.94;101493.09;5076144;28;45358;-86
2022/03/04 08:18:52;;;;;;;;;74.50;55.50;;;;;10.25;69.38;101475.22;5075344;27;45284;-86
2022/03/04 08:21:18;;;;;;;;;69.75;53.75;;;;;10.46;69.26;101513.06;5077018;27;45275;-86
2022/03/04 08:23:43;;;;;;;;;68.50;53.25;;;;;10.56;68.89;101510.72;5073587;28;47373;-86
2022/03/04 08:26:09;;;;;;;;;71.50;55.00;;;;;10.62;69.09;101505.69;5075532;28;45225;-86
2022/03/04 08:28:35;;;;;;;;;73.50;55.75;;;;;10.77;68.43;101519.44;5072107;27;45161;-85
2022/03/04 08:31:00;;;;;;;;;69.25;54.25;;;;;10.79;68.70;101514.22;5078783;28;45488;-85
2022/03/04 08:33:27;;;;;;;;;67.75;55.00;;;;;10.93;68.83;101523.53;5076210;28;45232;-85
2022/03/04 08:35:53;;;;;;;;;75.25;57.00;;;;;10.99;67.63;101529.00;5079410;28;45319;-85
2022/03/04 08:38:19;;;;;;;;;75.25;57.25;;;;;10.78;68.17;101485.94;5077886;27;45286;-85
2022/03/04 08:40:44;;;;;;;;;72.75;53.25;;;;;11.11;67.75;101534.72;5082501;28;45778;-85
2022/03/04 08:43:09;;;;;;;;;69.75;53.75;;;;;11.19;67.48;101532.34;5076286;27;45589;-85
2022/03/04 08:45:35;;;;;;;;;70.25;54.50;;;;;11.23;67.50;101526.31;5081833;28;45384;-84
2022/03/04 08:48:06;;;;;;;;;73.00;54.50;;;;;11.10;67.68;101509.13;5077121;28;45312;-85
2022/03/04 08:50:34;;;;;;;;;75.00;56.25;;;;;11.31;67.60;101534.47;5071668;28;45255;-86
2022/03/04 08:53:03;;;;;;;;;72.75;56.50;;;;;11.34;66.98;101532.84;5075476;27;46275;-86
2022/03/04 08:55:30;;;;;;;;;68.25;53.25;;;;;11.40;67.53;101538.34;5081927;28;45370;-79
2022/03/04 08:57:57;;;;;;;;;72.75;55.50;;;;;11.49;66.62;101524.50;5076147;27;44708;-83
2022/03/04 09:00:23;;;;;;;;;71.50;53.75;;;;;11.58;66.64;101534.50;5081695;28;45370;-79
2022/03/04 09:02:48;;;;;;;;;75.50;55.25;;;;;11.53;66.08;101510.50;5077073;27;48183;-80
2022/03/04 09:05:14;;;;;;;;;67.50;51.25;;;;;11.47;65.94;101488.25;5076138;28;45417;-82
2022/03/04 09:07:39;;;;;;;;;66.75;51.75;;;;;11.84;65.90;101537.94;5078547;28;45331;-79
2022/03/04 09:10:05;;;;;;;;;68.25;53.75;;;;;11.84;65.67;101520.28;5077145;28;45294;-81
2022/03/04 09:12:31;;;;;;;;;68.25;53.00;;;;;12.02;65.69;101535.91;5078582;27;46136;-80
2022/03/04 09:14:56;;;;;;;;;68.25;53.25;;;;;11.93;65.02;101510.88;5076764;28;45362;-80
2022/03/04 09:17:22;;;;;;;;;62.75;49.75;;;;;12.05;64.61;101514.81;5079237;27;45295;-80
2022/03/04 09:19:47;;;;;;;;;67.00;52.00;;;;;12.25;64.27;101533.03;5109358;27;45989;-79
2022/03/04 09:22:13;;;;;;;;;70.00;52.00;;;;;12.33;63.80;101534.16;5079114;28;45940;-81
2022/03/04 09:24:38;;;;;;;;;71.75;54.75;;;;;12.14;64.09;101484.13;5078373;27;45184;-78
2022/03/04 09:27:04;;;;;;;;;80.75;60.75;;;;;12.49;63.22;101533.75;5080100;27;45283;-80
2022/03/04 09:29:30;;;;;;;;;68.75;54.00;;;;;12.57;63.52;101530.41;5077869;28;45470;-80
2022/03/04 09:31:55;;;;;;;;;72.50;55.25;;;;;12.63;63.08;101531.50;5080017;27;47075;-80
2022/03/04 09:34:21;;;;;;;;;74.00;56.75;;;;;12.71;63.32;101534.31;5076123;27;45295;-80
2022/03/04 09:36:46;;;;;;;;;73.50;56.50;;;;;12.77;63.38;101531.84;5080747;28;45162;-81
2022/03/04 09:39:11;;;;;;;;;62.00;50.00;;;;;12.81;62.95;101530.19;5075534;28;45263;-82
2022/03/04 09:41:43;;;;;;;;;64.00;51.75;;;;;12.93;62.47;101534.03;5079551;28;47098;-83
2022/03/04 09:44:09;;;;;;;;;66.75;51.50;;;;;12.93;61.63;101528.75;5079156;28;45465;-81
2022/03/04 09:46:34;;;;;;;;;70.25;56.00;;;;;12.87;61.56;101523.28;5081476;27;45315;-82
2022/03/04 09:48:59;;;;;;;;;68.50;54.50;;;;;12.80;62.02;101497.47;5076122;27;45166;-82
2022/03/04 09:51:25;;;;;;;;;65.50;51.00;;;;;12.71;62.09;101482.16;5073650;27;45362;-85
2022/03/04 09:53:52;;;;;;;;;69.75;53.50;;;;;13.01;63.34;101536.03;5076322;28;45319;-85
2022/03/04 09:56:19;;;;;;;;;70.00;55.00;;;;;12.74;61.88;101499.91;5082430;27;45492;-88
2022/03/04 09:58:45;;;;;;;;;67.75;53.50;;;;;12.84;62.26;101517.00;5074560;28;46302;-86
2022/03/04 10:01:12;;;;;;;;;74.00;56.25;;;;;12.98;62.92;101543.03;5079647;28;46187;-85
2022/03/04 10:03:49;;;;;;;;;64.50;52.00;;;;;12.80;62.11;101504.50;5076458;28;45311;-81
2022/03/04 10:06:16;;;;;;;;;66.00;50.75;;;;;12.92;61.73;101529.59;5079862;28;45331;-83
2022/03/04 10:08:44;;;;;;;;;65.50;52.00;;;;;12.89;61.94;101510.97;5075609;28;46357;-82
2022/03/04 10:11:11;;;;;;;;;66.25;53.25;;;;;13.01;61.16;101528.06;5078255;28;45593;-80
2022/03/04 10:13:48;;;;;;;;;68.75;52.25;;;;;12.83;61.54;101499.28;5076258;28;45379;-86
2022/03/04 10:16:51;;;;;;;;;83.50;72.75;;;;;12.84;61.42;101490.47;5080382;27;45395;-83
2022/03/04 10:19:20;;;;;;;;;67.50;52.25;;;;;12.86;62.00;101491.41;5074559;27;45312;-85
2022/03/04 10:21:56;;;;;;;;;68.00;51.25;;;;;13.18;62.03;101540.88;5081462;27;45450;-85
2022/03/04 10:24:30;;;;;;;;;69.25;53.00;;;;;13.18;61.30;101537.34;5079431;28;45838;-87
2022/03/04 10:27:05;;;;;;;;;64.75;50.25;;;;;13.25;61.11;101543.69;5081241;27;45278;-88
2022/03/04 10:29:33;;;;;;;;;69.00;54.00;;;;;13.10;60.75;101513.25;5075664;28;45172;-88
2022/03/04 10:32:18;;;;;;;;;70.00;54.25;;;;;13.31;61.09;101544.81;5083394;28;45378;-86
2022/03/04 10:35:03;;;;;;;;;71.25;56.00;;;;;13.33;61.03;101544.81;5073841;28;45318;-87
2022/03/04 10:37:52;;;;;;;;;70.25;54.25;;;;;13.34;61.81;101547.53;5077065;28;44871;-85
2022/03/04 10:40:25;;;;;;;;;67.25;53.00;;;;;13.33;61.63;101535.13;5079699;28;45235;-82
2022/03/04 10:43:05;;;;;;;;;68.25;55.00;;;;;13.40;60.06;101553.00;5075451;27;45393;-84
2022/03/04 10:45:34;;;;;;;;;66.75;50.75;;;;;13.44;60.51;101553.94;5076604;28;45400;-81
2022/03/04 10:48:07;;;;;;;;;65.50;50.25;;;;;13.49;60.29;101554.06;5078354;28;45387;-82
2022/03/04 10:50:38;;;;;;;;;85.25;72.75;;;;;13.54;60.11;101553.34;5072300;28;45432;-83
2022/03/04 10:53:10;;;;;;;;;64.25;51.00;;;;;13.59;61.35;101553.44;5074450;28;48195;-87
2022/03/04 10:55:51;;;;;;;;;66.00;52.25;;;;;13.56;60.27;101553.38;5080123;28;45276;-86
2022/03/04 10:58:29;;;;;;;;;63.25;50.00;;;;;13.58;60.55;101552.56;5076825;28;45358;-84
2022/03/04 11:00:58;;;;;;;;;66.50;53.00;;;;;13.47;59.66;101521.25;5080696;27;45524;-86
2022/03/04 11:03:29;;;;;;;;;62.75;49.50;;;;;13.60;60.12;101544.59;5079387;28;48347;-89
2022/03/04 11:05:57;;;;;;;;;68.00;52.00;;;;;13.64;60.00;101550.03;5077182;28;45377;-77
2022/03/04 11:08:23;;;;;;;;;82.25;72.25;;;;;13.64;59.55;101533.22;5075883;28;45351;-86
2022/03/04 11:10:50;;;;;;;;;83.50;76.00;;;;;13.79;59.11;101552.16;5089532;27;46026;-89
2022/03/04 11:13:16;;;;;;;;;66.25;52.00;;;;;13.70;59.71;101512.09;5080769;27;46201;-86